sensor_id;sensor_type;location;lat;lon;timestamp;pressure;altitude;pressure_sealevel;temperature;humidity
35989;BME280;22064;42.672;23.282;2023-01-30T00:00:07;94910.69;;;-1.81;100.00
35989;BME280;22064;42.672;23.282;2023-01-30T00:02:51;94904.63;;;-1.88;100.00
35989;BME280;22064;42.672;23.282;2023-01-30T00:05:35;94904.97;;;-1.83;100.00
35989;BME280;22064;42.672;23.282;2023-01-30T00:08:20;94903.53;;;-1.86;100.00
35989;BME280;22064;42.672;23.282;2023-01-30T00:11:05;94885.34;;;-1.91;100.00
35989;BME280;22064;42.672;23.282;2023-01-30T00:13:50;94894.44;;;-1.88;100.00
35989;BME280;22064;42.672;23.282;2023-01-30T00:16:34;94889.47;;;-1.81;100.00
35989;BME280;22064;42.672;23.282;2023-01-30T00:19:18;94893.31;;;-1.86;100.00
35989;BME280;22064;42.672;23.282;2023-01-30T00:22:02;94889.97;;;-1.78;100.00
35989;BME280;22064;42.672;23.282;2023-01-30T00:24:46;94900.16;;;-1.78;100.00
35989;BME280;22064;42.672;23.282;2023-01-30T00:27:31;94895.88;;;-1.77;100.00
35989;BME280;22064;42.672;23.282;2023-01-30T00:30:16;94899.88;;;-1.83;100.00
35989;BME280;22064;42.672;23.282;2023-01-30T00:32:59;94894.59;;;-1.81;100.00
35989;BME280;22064;42.672;23.282;2023-01-30T00:35:45;94900.47;;;-1.81;100.00
35989;BME280;22064;42.672;23.282;2023-01-30T00:38:30;94889.47;;;-1.81;100.00
35989;BME280;22064;42.672;23.282;2023-01-30T00:41:14;94896.00;;;-1.87;100.00
35989;BME280;22064;42.672;23.282;2023-01-30T00:43:59;94903.38;;;-1.92;100.00
35989;BME280;22064;42.672;23.282;2023-01-30T00:47:02;94888.66;;;-1.90;100.00
35989;BME280;22064;42.672;23.282;2023-01-30T00:49:49;94884.88;;;-2.02;100.00
35989;BME280;22064;42.672;23.282;2023-01-30T00:52:34;94876.84;;;-2.16;100.00
35989;BME280;22064;42.672;23.282;2023-01-30T00:55:18;94880.38;;;-2.08;100.00
35989;BME280;22064;42.672;23.282;2023-01-30T00:58:03;94874.63;;;-2.11;100.00
35989;BME280;22064;42.672;23.282;2023-01-30T01:00:48;94874.00;;;-2.13;100.00
35989;BME280;22064;42.672;23.282;2023-01-30T01:03:33;94875.28;;;-2.00;100.00
35989;BME280;22064;42.672;23.282;2023-01-30T01:06:21;94877.22;;;-2.02;100.00
35989;BME280;22064;42.672;23.282;2023-01-30T01:09:06;94869.22;;;-1.91;100.00
35989;BME280;22064;42.672;23.282;2023-01-30T01:11:50;94872.72;;;-2.00;100.00
35989;BME280;22064;42.672;23.282;2023-01-30T01:14:35;94864.28;;;-2.17;100.00
35989;BME280;22064;42.672;23.282;2023-01-30T01:17:19;94852.44;;;-2.43;100.00
35989;BME280;22064;42.672;23.282;2023-01-30T01:20:04;94868.53;;;-2.34;100.00
35989;BME280;22064;42.672;23.282;2023-01-30T01:22:54;94859.31;;;-2.27;100.00
35989;BME280;22064;42.672;23.282;2023-01-30T01:25:38;94840.47;;;-2.34;100.00
35989;BME280;22064;42.672;23.282;2023-01-30T01:28:23;94837.13;;;-2.35;100.00
35989;BME280;22064;42.672;23.282;2023-01-30T01:31:10;94852.47;;;-2.26;100.00
35989;BME280;22064;42.672;23.282;2023-01-30T01:33:54;94844.00;;;-2.27;100.00
35989;BME280;22064;42.672;23.282;2023-01-30T01:36:38;94840.97;;;-2.22;100.00
35989;BME280;22064;42.672;23.282;2023-01-30T01:39:23;94851.84;;;-2.20;100.00
35989;BME280;22064;42.672;23.282;2023-01-30T01:42:08;94847.97;;;-2.24;100.00
35989;BME280;22064;42.672;23.282;2023-01-30T01:45:01;94845.28;;;-2.23;100.00
35989;BME280;22064;42.672;23.282;2023-01-30T01:50:41;94872.06;;;-2.19;100.00
35989;BME280;22064;42.672;23.282;2023-01-30T01:53:37;94870.47;;;-2.20;100.00
35989;BME280;22064;42.672;23.282;2023-01-30T01:56:22;94855.00;;;-2.18;100.00
35989;BME280;22064;42.672;23.282;2023-01-30T01:59:19;94847.66;;;-2.21;100.00
35989;BME280;22064;42.672;23.282;2023-01-30T02:02:08;94865.84;;;-2.16;100.00
35989;BME280;22064;42.672;23.282;2023-01-30T02:04:56;94855.81;;;-2.18;100.00
35989;BME280;22064;42.672;23.282;2023-01-30T02:08:02;94858.19;;;-2.24;100.00
35989;BME280;22064;42.672;23.282;2023-01-30T02:11:08;94855.81;;;-2.26;100.00
35989;BME280;22064;42.672;23.282;2023-01-30T02:13:56;94851.03;;;-2.21;100.00
35989;BME280;22064;42.672;23.282;2023-01-30T02:16:43;94857.75;;;-2.12;100.00
35989;BME280;22064;42.672;23.282;2023-01-30T02:31:39;94849.13;;;-2.27;100.00
35989;BME280;22064;42.672;23.282;2023-01-30T02:44:05;94843.03;;;-2.34;100.00
35989;BME280;22064;42.672;23.282;2023-01-30T02:46:56;94842.72;;;-2.31;100.00
35989;BME280;22064;42.672;23.282;2023-01-30T02:49:47;94829.16;;;-2.32;100.00
35989;BME280;22064;42.672;23.282;2023-01-30T02:52:35;94836.38;;;-2.27;100.00
35989;BME280;22064;42.672;23.282;2023-01-30T02:55:26;94850.38;;;-2.23;100.00
35989;BME280;22064;42.672;23.282;2023-01-30T02:58:11;94840.97;;;-2.22;100.00
35989;BME280;22064;42.672;23.282;2023-01-30T03:04:00;94855.16;;;-2.36;100.00
35989;BME280;22064;42.672;23.282;2023-01-30T03:09:48;94840.16;;;-2.31;100.00
35989;BME280;22064;42.672;23.282;2023-01-30T03:18:46;94831.25;;;-2.35;100.00
35989;BME280;22064;42.672;23.282;2023-01-30T03:21:33;94831.72;;;-2.40;100.00
35989;BME280;22064;42.672;23.282;2023-01-30T03:24:18;94818.16;;;-2.48;100.00
35989;BME280;22064;42.672;23.282;2023-01-30T03:27:06;94809.72;;;-2.33;100.00
35989;BME280;22064;42.672;23.282;2023-01-30T03:29:51;94809.56;;;-2.39;100.00
35989;BME280;22064;42.672;23.282;2023-01-30T03:32:35;94810.50;;;-2.40;100.00
35989;BME280;22064;42.672;23.282;2023-01-30T03:35:21;94800.63;;;-2.51;100.00
35989;BME280;22064;42.672;23.282;2023-01-30T03:38:06;94797.44;;;-2.45;100.00
35989;BME280;22064;42.672;23.282;2023-01-30T03:40:52;94810.81;;;-2.43;100.00
35989;BME280;22064;42.672;23.282;2023-01-30T03:43:37;94803.34;;;-2.37;100.00
35989;BME280;22064;42.672;23.282;2023-01-30T03:46:22;94816.88;;;-2.44;100.00
35989;BME280;22064;42.672;23.282;2023-01-30T03:49:07;94804.00;;;-2.43;100.00
35989;BME280;22064;42.672;23.282;2023-01-30T03:51:52;94801.91;;;-2.31;100.00
35989;BME280;22064;42.672;23.282;2023-01-30T03:54:36;94791.69;;;-2.31;100.00
35989;BME280;22064;42.672;23.282;2023-01-30T03:57:21;94804.16;;;-2.36;100.00
35989;BME280;22064;42.672;23.282;2023-01-30T04:00:07;94804.31;;;-2.29;100.00
35989;BME280;22064;42.672;23.282;2023-01-30T04:03:00;94802.06;;;-2.33;100.00
35989;BME280;22064;42.672;23.282;2023-01-30T04:05:45;94789.47;;;-2.42;100.00
35989;BME280;22064;42.672;23.282;2023-01-30T04:08:30;94796.97;;;-2.41;100.00
35989;BME280;22064;42.672;23.282;2023-01-30T04:11:15;94805.72;;;-2.43;100.00
35989;BME280;22064;42.672;23.282;2023-01-30T04:13:59;94795.06;;;-2.39;100.00
35989;BME280;22064;42.672;23.282;2023-01-30T04:16:44;94782.75;;;-2.60;100.00
35989;BME280;22064;42.672;23.282;2023-01-30T04:19:28;94796.47;;;-2.44;100.00
35989;BME280;22064;42.672;23.282;2023-01-30T04:22:12;94785.31;;;-2.51;100.00
35989;BME280;22064;42.672;23.282;2023-01-30T04:24:57;94783.41;;;-2.49;100.00
35989;BME280;22064;42.672;23.282;2023-01-30T04:27:42;94794.09;;;-2.46;100.00
35989;BME280;22064;42.672;23.282;2023-01-30T04:30:35;94792.34;;;-2.45;100.00
35989;BME280;22064;42.672;23.282;2023-01-30T04:33:38;94784.38;;;-2.50;100.00
35989;BME280;22064;42.672;23.282;2023-01-30T04:36:24;94800.16;;;-2.55;100.00
35989;BME280;22064;42.672;23.282;2023-01-30T04:39:08;94789.63;;;-2.52;100.00
35989;BME280;22064;42.672;23.282;2023-01-30T04:41:52;94794.72;;;-2.52;100.00
35989;BME280;22064;42.672;23.282;2023-01-30T04:44:36;94792.81;;;-2.50;100.00
35989;BME280;22064;42.672;23.282;2023-01-30T04:47:28;94782.59;;;-2.50;100.00
35989;BME280;22064;42.672;23.282;2023-01-30T04:50:12;94778.78;;;-2.54;100.00
35989;BME280;22064;42.672;23.282;2023-01-30T04:52:57;94783.72;;;-2.61;100.00
35989;BME280;22064;42.672;23.282;2023-01-30T04:55:41;94781.31;;;-2.62;100.00
35989;BME280;22064;42.672;23.282;2023-01-30T04:58:25;94766.50;;;-2.67;100.00
35989;BME280;22064;42.672;23.282;2023-01-30T05:01:30;94763.00;;;-2.58;100.00
35989;BME280;22064;42.672;23.282;2023-01-30T05:04:16;94767.78;;;-2.54;100.00
35989;BME280;22064;42.672;23.282;2023-01-30T05:07:00;94769.69;;;-2.65;100.00
35989;BME280;22064;42.672;23.282;2023-01-30T05:09:44;94759.34;;;-2.63;100.00
35989;BME280;22064;42.672;23.282;2023-01-30T05:12:28;94767.78;;;-2.71;100.00
35989;BME280;22064;42.672;23.282;2023-01-30T05:15:13;94757.09;;;-2.66;100.00
35989;BME280;22064;42.672;23.282;2023-01-30T05:17:58;94754.69;;;-2.76;100.00
35989;BME280;22064;42.672;23.282;2023-01-30T05:20:42;94762.81;;;-2.72;100.00
35989;BME280;22064;42.672;23.282;2023-01-30T05:23:26;94772.25;;;-2.57;100.00
35989;BME280;22064;42.672;23.282;2023-01-30T05:26:11;94753.91;;;-2.68;100.00
35989;BME280;22064;42.672;23.282;2023-01-30T05:28:56;94777.97;;;-2.63;100.00
35989;BME280;22064;42.672;23.282;2023-01-30T05:31:41;94788.66;;;-2.67;100.00
35989;BME280;22064;42.672;23.282;2023-01-30T05:34:25;94778.44;;;-2.59;100.00
35989;BME280;22064;42.672;23.282;2023-01-30T05:37:10;94773.84;;;-2.64;100.00
35989;BME280;22064;42.672;23.282;2023-01-30T05:39:54;94779.91;;;-2.65;100.00
35989;BME280;22064;42.672;23.282;2023-01-30T05:42:39;94776.69;;;-2.67;100.00
35989;BME280;22064;42.672;23.282;2023-01-30T05:45:23;94768.41;;;-2.77;100.00
35989;BME280;22064;42.672;23.282;2023-01-30T05:48:07;94766.81;;;-2.70;100.00
35989;BME280;22064;42.672;23.282;2023-01-30T05:50:52;94781.94;;;-2.68;100.00
35989;BME280;22064;42.672;23.282;2023-01-30T05:53:37;94776.69;;;-2.67;100.00
35989;BME280;22064;42.672;23.282;2023-01-30T05:56:21;94781.78;;;-2.59;100.00
35989;BME280;22064;42.672;23.282;2023-01-30T05:59:06;94786.91;;;-2.67;100.00
35989;BME280;22064;42.672;23.282;2023-01-30T06:01:52;94776.66;;;-2.75;100.00
35989;BME280;22064;42.672;23.282;2023-01-30T06:04:36;94781.16;;;-2.61;100.00
35989;BME280;22064;42.672;23.282;2023-01-30T06:07:21;94779.59;;;-2.62;100.00
35989;BME280;22064;42.672;23.282;2023-01-30T06:10:05;94792.31;;;-2.70;100.00
35989;BME280;22064;42.672;23.282;2023-01-30T06:12:49;94774.13;;;-2.75;100.00
35989;BME280;22064;42.672;23.282;2023-01-30T06:15:33;94775.44;;;-2.71;100.00
35989;BME280;22064;42.672;23.282;2023-01-30T06:18:17;94774.81;;;-2.65;100.00
35989;BME280;22064;42.672;23.282;2023-01-30T06:21:02;94792.31;;;-2.70;100.00
35989;BME280;22064;42.672;23.282;2023-01-30T06:23:46;94779.56;;;-2.70;100.00
35989;BME280;22064;42.672;23.282;2023-01-30T06:26:30;94770.63;;;-2.74;100.00
35989;BME280;22064;42.672;23.282;2023-01-30T06:29:14;94773.94;;;-2.82;100.00
35989;BME280;22064;42.672;23.282;2023-01-30T06:31:58;94777.34;;;-2.65;100.00
35989;BME280;22064;42.672;23.282;2023-01-30T06:34:42;94779.88;;;-2.73;100.00
35989;BME280;22064;42.672;23.282;2023-01-30T06:37:26;94773.34;;;-2.75;100.00
35989;BME280;22064;42.672;23.282;2023-01-30T06:40:11;94772.72;;;-2.69;100.00
35989;BME280;22064;42.672;23.282;2023-01-30T06:42:56;94772.41;;;-2.66;100.00
35989;BME280;22064;42.672;23.282;2023-01-30T06:45:40;94776.84;;;-2.76;100.00
35989;BME280;22064;42.672;23.282;2023-01-30T06:48:24;94782.25;;;-2.71;100.00
35989;BME280;22064;42.672;23.282;2023-01-30T06:51:09;94783.69;;;-2.77;100.00
35989;BME280;22064;42.672;23.282;2023-01-30T06:53:53;94781.00;;;-2.67;100.00
35989;BME280;22064;42.672;23.282;2023-01-30T06:56:37;94782.88;;;-2.78;100.00
35989;BME280;22064;42.672;23.282;2023-01-30T06:59:21;94785.09;;;-2.74;100.00
35989;BME280;22064;42.672;23.282;2023-01-30T07:02:05;94792.44;;;-2.71;100.00
35989;BME280;22064;42.672;23.282;2023-01-30T07:04:50;94783.06;;;-2.63;100.00
35989;BME280;22064;42.672;23.282;2023-01-30T07:07:35;94805.69;;;-2.68;100.00
35989;BME280;22064;42.672;23.282;2023-01-30T07:10:19;94788.47;;;-2.74;100.00
35989;BME280;22064;42.672;23.282;2023-01-30T07:13:04;94798.06;;;-2.68;100.00
35989;BME280;22064;42.672;23.282;2023-01-30T07:15:48;94803.13;;;-2.76;100.00
35989;BME280;22064;42.672;23.282;2023-01-30T07:18:32;94792.97;;;-2.68;100.00
35989;BME280;22064;42.672;23.282;2023-01-30T07:21:16;94789.91;;;-2.71;100.00
35989;BME280;22064;42.672;23.282;2023-01-30T07:24:00;94792.31;;;-2.53;100.00
35989;BME280;22064;42.672;23.282;2023-01-30T07:26:47;94783.41;;;-2.58;100.00
35989;BME280;22064;42.672;23.282;2023-01-30T07:29:31;94787.53;;;-2.57;100.00
35989;BME280;22064;42.672;23.282;2023-01-30T07:32:17;94807.78;;;-2.63;100.00
35989;BME280;22064;42.672;23.282;2023-01-30T07:35:02;94816.06;;;-2.61;100.00
35989;BME280;22064;42.672;23.282;2023-01-30T07:37:47;94805.38;;;-2.57;100.00
35989;BME280;22064;42.672;23.282;2023-01-30T07:40:32;94800.31;;;-2.48;100.00
35989;BME280;22064;42.672;23.282;2023-01-30T07:43:16;94821.00;;;-2.60;100.00
35989;BME280;22064;42.672;23.282;2023-01-30T07:46:01;94808.44;;;-2.45;100.00
35989;BME280;22064;42.672;23.282;2023-01-30T07:48:47;94810.34;;;-2.55;100.00
35989;BME280;22064;42.672;23.282;2023-01-30T07:51:31;94817.34;;;-2.57;100.00
35989;BME280;22064;42.672;23.282;2023-01-30T07:54:15;94812.44;;;-2.42;100.00
35989;BME280;22064;42.672;23.282;2023-01-30T07:56:59;94795.84;;;-2.46;100.00
35989;BME280;22064;42.672;23.282;2023-01-30T07:59:43;94792.16;;;-2.44;100.00
35989;BME280;22064;42.672;23.282;2023-01-30T08:02:27;94770.81;;;-2.35;100.00
35989;BME280;22064;42.672;23.282;2023-01-30T08:05:11;94784.06;;;-2.39;100.00
35989;BME280;22064;42.672;23.282;2023-01-30T08:07:56;94778.16;;;-2.32;100.00
35989;BME280;22064;42.672;23.282;2023-01-30T08:10:41;94775.78;;;-2.41;100.00
35989;BME280;22064;42.672;23.282;2023-01-30T08:13:25;94772.88;;;-2.46;100.00
35989;BME280;22064;42.672;23.282;2023-01-30T08:16:09;94784.06;;;-2.23;100.00
35989;BME280;22064;42.672;23.282;2023-01-30T08:18:53;94775.47;;;-2.14;100.00
35989;BME280;22064;42.672;23.282;2023-01-30T08:21:38;94777.22;;;-2.22;100.00
35989;BME280;22064;42.672;23.282;2023-01-30T08:24:22;94773.22;;;-2.17;100.00
35989;BME280;22064;42.672;23.282;2023-01-30T08:27:06;94771.44;;;-1.92;100.00
35989;BME280;22064;42.672;23.282;2023-01-30T08:29:51;94771.16;;;-2.13;100.00
35989;BME280;22064;42.672;23.282;2023-01-30T08:32:35;94768.75;;;-2.23;100.00
35989;BME280;22064;42.672;23.282;2023-01-30T08:35:19;94761.75;;;-2.21;100.00
35989;BME280;22064;42.672;23.282;2023-01-30T08:38:05;94763.97;;;-2.10;100.00
35989;BME280;22064;42.672;23.282;2023-01-30T08:40:50;94758.22;;;-1.95;100.00
35989;BME280;22064;42.672;23.282;2023-01-30T08:43:34;94757.53;;;-1.81;100.00
35989;BME280;22064;42.672;23.282;2023-01-30T08:46:18;94761.09;;;-1.98;100.00
35989;BME280;22064;42.672;23.282;2023-01-30T08:49:05;94752.75;;;-1.84;100.00
35989;BME280;22064;42.672;23.282;2023-01-30T08:51:49;94752.47;;;-1.97;100.00
35989;BME280;22064;42.672;23.282;2023-01-30T08:54:33;94758.69;;;-2.00;100.00
35989;BME280;22064;42.672;23.282;2023-01-30T08:57:17;94761.75;;;-1.96;100.00
35989;BME280;22064;42.672;23.282;2023-01-30T09:00:03;94758.50;;;-1.82;100.00
35989;BME280;22064;42.672;23.282;2023-01-30T09:02:47;94747.94;;;-1.63;100.00
35989;BME280;22064;42.672;23.282;2023-01-30T09:05:31;94762.66;;;-1.73;100.00
35989;BME280;22064;42.672;23.282;2023-01-30T09:08:15;94746.06;;;-1.77;100.00
35989;BME280;22064;42.672;23.282;2023-01-30T09:11:02;94742.59;;;-1.92;100.00
35989;BME280;22064;42.672;23.282;2023-01-30T09:13:47;94740.50;;;-1.89;100.00
35989;BME280;22064;42.672;23.282;2023-01-30T09:16:32;94744.16;;;-1.83;100.00
35989;BME280;22064;42.672;23.282;2023-01-30T09:19:16;94746.69;;;-1.75;100.00
35989;BME280;22064;42.672;23.282;2023-01-30T09:22:00;94736.19;;;-1.80;100.00
35989;BME280;22064;42.672;23.282;2023-01-30T09:24:44;94737.31;;;-1.91;100.00
35989;BME280;22064;42.672;23.282;2023-01-30T09:27:29;94732.38;;;-2.00;100.00
35989;BME280;22064;42.672;23.282;2023-01-30T09:30:13;94729.06;;;-2.17;100.00
35989;BME280;22064;42.672;23.282;2023-01-30T09:32:57;94731.28;;;-2.14;100.00
35989;BME280;22064;42.672;23.282;2023-01-30T09:35:42;94751.56;;;-2.21;100.00
35989;BME280;22064;42.672;23.282;2023-01-30T09:38:26;94735.44;;;-2.29;100.00
35989;BME280;22064;42.672;23.282;2023-01-30T09:41:35;94741.16;;;-2.27;100.00
35989;BME280;22064;42.672;23.282;2023-01-30T09:48:18;94723.16;;;-2.26;100.00
35989;BME280;22064;42.672;23.282;2023-01-30T09:56:59;94713.44;;;-2.22;100.00
35989;BME280;22064;42.672;23.282;2023-01-30T10:00:04;94717.59;;;-2.29;100.00
35989;BME280;22064;42.672;23.282;2023-01-30T10:03:28;94707.88;;;-2.26;100.00
35989;BME280;22064;42.672;23.282;2023-01-30T10:06:14;94695.13;;;-2.18;100.00
35989;BME280;22064;42.672;23.282;2023-01-30T10:09:10;94691.59;;;-2.25;100.00
35989;BME280;22064;42.672;23.282;2023-01-30T10:12:01;94691.59;;;-2.17;100.00
35989;BME280;22064;42.672;23.282;2023-01-30T10:17:46;94678.88;;;-2.41;100.00
35989;BME280;22064;42.672;23.282;2023-01-30T10:20:54;94672.47;;;-2.37;100.00
35989;BME280;22064;42.672;23.282;2023-01-30T10:26:55;94658.00;;;-2.45;100.00
35989;BME280;22064;42.672;23.282;2023-01-30T10:29:43;94660.69;;;-2.46;100.00
35989;BME280;22064;42.672;23.282;2023-01-30T10:32:38;94653.50;;;-2.35;100.00
35989;BME280;22064;42.672;23.282;2023-01-30T10:35:29;94651.31;;;-2.46;100.00
35989;BME280;22064;42.672;23.282;2023-01-30T10:38:19;94644.47;;;-2.53;100.00
35989;BME280;22064;42.672;23.282;2023-01-30T10:41:16;94626.78;;;-2.55;100.00
35989;BME280;22064;42.672;23.282;2023-01-30T10:44:11;94620.22;;;-2.49;100.00
35989;BME280;22064;42.672;23.282;2023-01-30T10:47:19;94619.56;;;-2.43;100.00
35989;BME280;22064;42.672;23.282;2023-01-30T10:53:20;94598.69;;;-2.39;100.00
35989;BME280;22064;42.672;23.282;2023-01-30T10:59:24;94596.28;;;-2.32;100.00
35989;BME280;22064;42.672;23.282;2023-01-30T11:02:23;94584.78;;;-2.20;100.00
35989;BME280;22064;42.672;23.282;2023-01-30T11:05:15;94577.97;;;-2.36;100.00
35989;BME280;22064;42.672;23.282;2023-01-30T11:08:01;94576.69;;;-2.32;100.00
35989;BME280;22064;42.672;23.282;2023-01-30T11:10:45;94565.38;;;-2.29;100.00
35989;BME280;22064;42.672;23.282;2023-01-30T11:13:31;94559.94;;;-2.26;100.00
35989;BME280;22064;42.672;23.282;2023-01-30T11:16:15;94562.81;;;-2.37;100.00
35989;BME280;22064;42.672;23.282;2023-01-30T11:19:04;94542.72;;;-2.24;100.00
35989;BME280;22064;42.672;23.282;2023-01-30T11:22:00;94534.75;;;-2.29;100.00
35989;BME280;22064;42.672;23.282;2023-01-30T11:24:45;94534.41;;;-2.18;100.00
35989;BME280;22064;42.672;23.282;2023-01-30T11:27:32;94515.91;;;-2.20;100.00
35989;BME280;22064;42.672;23.282;2023-01-30T11:30:18;94525.44;;;-2.14;100.00
35989;BME280;22064;42.672;23.282;2023-01-30T11:35:56;94518.25;;;-2.10;100.00
35989;BME280;22064;42.672;23.282;2023-01-30T11:38:55;94512.16;;;-2.01;100.00
35989;BME280;22064;42.672;23.282;2023-01-30T11:41:57;94518.38;;;-2.03;100.00
35989;BME280;22064;42.672;23.282;2023-01-30T11:44:41;94486.81;;;-2.02;100.00
35989;BME280;22064;42.672;23.282;2023-01-30T11:47:27;94500.25;;;-2.08;100.00
35989;BME280;22064;42.672;23.282;2023-01-30T11:50:17;94476.66;;;-1.88;100.00
35989;BME280;22064;42.672;23.282;2023-01-30T11:53:03;94477.22;;;-2.00;100.00
35989;BME280;22064;42.672;23.282;2023-01-30T11:55:57;94462.81;;;-1.93;100.00
35989;BME280;22064;42.672;23.282;2023-01-30T11:58:43;94472.59;;;-1.74;100.00
35989;BME280;22064;42.672;23.282;2023-01-30T12:01:34;94457.84;;;-1.64;100.00
35989;BME280;22064;42.672;23.282;2023-01-30T12:04:18;94465.72;;;-1.50;100.00
35989;BME280;22064;42.672;23.282;2023-01-30T12:07:27;94450.47;;;-1.58;100.00
35989;BME280;22064;42.672;23.282;2023-01-30T12:10:28;94451.31;;;-1.43;100.00
35989;BME280;22064;42.672;23.282;2023-01-30T12:16:12;94431.69;;;-1.43;100.00
35989;BME280;22064;42.672;23.282;2023-01-30T12:19:10;94424.00;;;-1.43;100.00
35989;BME280;22064;42.672;23.282;2023-01-30T12:22:37;94415.91;;;-1.31;100.00
35989;BME280;22064;42.672;23.282;2023-01-30T12:25:30;94438.47;;;-1.35;100.00
35989;BME280;22064;42.672;23.282;2023-01-30T12:28:42;94427.22;;;-1.11;100.00
35989;BME280;22064;42.672;23.282;2023-01-30T12:31:42;94416.75;;;-0.72;100.00
35989;BME280;22064;42.672;23.282;2023-01-30T12:34:29;94402.22;;;-0.71;100.00
35989;BME280;22064;42.672;23.282;2023-01-30T12:43:09;94399.38;;;-0.61;100.00
35989;BME280;22064;42.672;23.282;2023-01-30T12:46:18;94394.06;;;-0.60;100.00
35989;BME280;22064;42.672;23.282;2023-01-30T12:58:22;94376.53;;;-0.63;100.00
35989;BME280;22064;42.672;23.282;2023-01-30T13:07:22;94391.78;;;-0.70;100.00
35989;BME280;22064;42.672;23.282;2023-01-30T13:13:17;94381.53;;;-0.55;100.00
35989;BME280;22064;42.672;23.282;2023-01-30T13:21:47;94374.31;;;-0.66;100.00
35989;BME280;22064;42.672;23.282;2023-01-30T13:24:42;94371.09;;;-1.19;100.00
35989;BME280;22064;42.672;23.282;2023-01-30T13:27:33;94370.94;;;-1.03;100.00
35989;BME280;22064;42.672;23.282;2023-01-30T13:30:20;94362.88;;;-0.85;100.00
35989;BME280;22064;42.672;23.282;2023-01-30T13:33:14;94360.44;;;-1.23;100.00
35989;BME280;22064;42.672;23.282;2023-01-30T13:36:26;94354.78;;;-1.48;100.00
35989;BME280;22064;42.672;23.282;2023-01-30T13:39:22;94340.81;;;-1.37;100.00
35989;BME280;22064;42.672;23.282;2023-01-30T13:42:27;94356.19;;;-1.45;100.00
35989;BME280;22064;42.672;23.282;2023-01-30T13:45:19;94332.06;;;-1.57;100.00
35989;BME280;22064;42.672;23.282;2023-01-30T13:48:38;94343.34;;;-1.37;100.00
35989;BME280;22064;42.672;23.282;2023-01-30T13:57:41;94325.78;;;-1.70;100.00
35989;BME280;22064;42.672;23.282;2023-01-30T14:00:31;94344.03;;;-1.58;100.00
35989;BME280;22064;42.672;23.282;2023-01-30T14:03:29;94327.31;;;-1.46;100.00
35989;BME280;22064;42.672;23.282;2023-01-30T14:06:33;94334.63;;;-1.43;100.00
35989;BME280;22064;42.672;23.282;2023-01-30T14:09:25;94328.72;;;-1.28;100.00
35989;BME280;22064;42.672;23.282;2023-01-30T14:15:25;94337.56;;;-1.69;100.00
35989;BME280;22064;42.672;23.282;2023-01-30T14:21:21;94328.81;;;-1.51;100.00
35989;BME280;22064;42.672;23.282;2023-01-30T14:24:21;94340.16;;;-1.54;100.00
35989;BME280;22064;42.672;23.282;2023-01-30T14:27:21;94347.72;;;-1.60;100.00
35989;BME280;22064;42.672;23.282;2023-01-30T14:42:24;94355.28;;;-1.67;100.00
35989;BME280;22064;42.672;23.282;2023-01-30T14:45:15;94332.34;;;-1.90;100.00
35989;BME280;22064;42.672;23.282;2023-01-30T14:54:27;94311.78;;;-1.74;100.00
35989;BME280;22064;42.672;23.282;2023-01-30T14:57:18;94296.00;;;-1.92;100.00
35989;BME280;22064;42.672;23.282;2023-01-30T15:00:14;94313.00;;;-1.84;100.00
35989;BME280;22064;42.672;23.282;2023-01-30T15:03:17;94308.56;;;-2.05;100.00
35989;BME280;22064;42.672;23.282;2023-01-30T15:06:03;94315.88;;;-2.02;100.00
35989;BME280;22064;42.672;23.282;2023-01-30T15:08:49;94306.75;;;-2.20;100.00
35989;BME280;22064;42.672;23.282;2023-01-30T15:11:35;94322.06;;;-2.20;100.00
35989;BME280;22064;42.672;23.282;2023-01-30T15:14:28;94310.34;;;-2.29;100.00
35989;BME280;22064;42.672;23.282;2023-01-30T15:20:51;94319.63;;;-2.36;100.00
35989;BME280;22064;42.672;23.282;2023-01-30T15:29:59;94316.69;;;-2.48;100.00
35989;BME280;22064;42.672;23.282;2023-01-30T15:32:45;94297.75;;;-2.53;100.00
35989;BME280;22064;42.672;23.282;2023-01-30T15:35:30;94309.88;;;-2.56;100.00
35989;BME280;22064;42.672;23.282;2023-01-30T15:41:08;94331.09;;;-2.63;100.00
35989;BME280;22064;42.672;23.282;2023-01-30T15:50:12;94308.69;;;-2.68;100.00
35989;BME280;22064;42.672;23.282;2023-01-30T15:52:56;94299.44;;;-2.69;100.00
35989;BME280;22064;42.672;23.282;2023-01-30T15:55:42;94300.75;;;-2.73;100.00
35989;BME280;22064;42.672;23.282;2023-01-30T15:58:27;94328.13;;;-2.75;100.00
35989;BME280;22064;42.672;23.282;2023-01-30T16:01:18;94304.41;;;-2.75;100.00
35989;BME280;22064;42.672;23.282;2023-01-30T16:04:03;94310.31;;;-2.75;100.00
35989;BME280;22064;42.672;23.282;2023-01-30T16:06:50;94303.63;;;-2.76;100.00
35989;BME280;22064;42.672;23.282;2023-01-30T16:09:34;94298.53;;;-2.76;100.00
35989;BME280;22064;42.672;23.282;2023-01-30T16:12:29;94307.75;;;-2.75;100.00
35989;BME280;22064;42.672;23.282;2023-01-30T16:18:03;94292.19;;;-2.80;100.00
35989;BME280;22064;42.672;23.282;2023-01-30T16:20:55;94282.59;;;-2.78;100.00
35989;BME280;22064;42.672;23.282;2023-01-30T16:23:54;94300.78;;;-2.81;100.00
35989;BME280;22064;42.672;23.282;2023-01-30T16:26:42;94278.81;;;-2.82;100.00
35989;BME280;22064;42.672;23.282;2023-01-30T16:29:30;94292.69;;;-2.85;100.00
35989;BME280;22064;42.672;23.282;2023-01-30T16:32:15;94275.19;;;-2.88;100.00
35989;BME280;22064;42.672;23.282;2023-01-30T16:47:06;94283.88;;;-2.74;100.00
35989;BME280;22064;42.672;23.282;2023-01-30T16:49:54;94277.28;;;-2.68;100.00
35989;BME280;22064;42.672;23.282;2023-01-30T16:52:44;94286.44;;;-2.74;100.00
35989;BME280;22064;42.672;23.282;2023-01-30T16:55:29;94289.13;;;-2.75;100.00
35989;BME280;22064;42.672;23.282;2023-01-30T16:58:15;94297.22;;;-2.72;100.00
35989;BME280;22064;42.672;23.282;2023-01-30T17:01:02;94297.53;;;-2.67;100.00
35989;BME280;22064;42.672;23.282;2023-01-30T17:03:50;94284.78;;;-2.67;100.00
35989;BME280;22064;42.672;23.282;2023-01-30T17:06:37;94275.38;;;-2.66;100.00